createdAt,value
2022-08-18T00:09:48.547Z,30.08
2022-08-18T00:19:55.328Z,30.03
2022-08-18T00:30:02.223Z,30.01
2022-08-18T00:40:09.120Z,29.99
2022-08-18T00:50:16.091Z,30.02
2022-08-18T01:00:23.644Z,29.98
2022-08-18T01:10:30.494Z,29.94
2022-08-18T01:20:37.463Z,29.93
2022-08-18T01:30:44.369Z,29.93
2022-08-18T01:41:17.512Z,29.90
2022-08-18T01:51:02.919Z,29.86
2022-08-18T02:01:09.975Z,29.89
2022-08-18T02:11:17.111Z,29.90
2022-08-18T02:21:24.184Z,29.87
2022-08-18T02:31:30.319Z,29.87
2022-08-18T02:41:36.948Z,29.91
2022-08-18T02:51:44.218Z,29.89
2022-08-18T03:01:51.061Z,29.84
2022-08-18T03:11:58.111Z,29.89
2022-08-18T03:22:05.134Z,29.86
2022-08-18T03:32:16.771Z,29.92
2022-08-18T03:42:23.798Z,29.89
2022-08-18T03:52:30.813Z,29.88
2022-08-18T04:02:37.463Z,29.81
2022-08-18T04:12:44.316Z,29.90
2022-08-18T04:22:50.953Z,29.91
2022-08-18T04:32:57.648Z,29.85
2022-08-18T04:43:04.500Z,29.85
2022-08-18T04:53:10.798Z,29.80
2022-08-18T05:03:16.970Z,29.76
2022-08-18T05:13:22.788Z,29.72
2022-08-18T05:23:28.972Z,29.74
2022-08-18T05:33:35.935Z,29.74
2022-08-18T05:43:51.802Z,29.68
2022-08-18T05:53:53.850Z,29.68
2022-08-18T06:04:00.467Z,29.70
2022-08-18T06:14:07.841Z,29.78
2022-08-18T06:24:15.027Z,29.74
2022-08-18T06:34:21.644Z,29.66
2022-08-18T06:44:28.959Z,29.68
2022-08-18T06:54:36.068Z,29.67
2022-08-18T07:04:43.123Z,29.68
2022-08-18T07:14:50.193Z,29.73
2022-08-18T07:25:00.531Z,29.72
2022-08-18T07:35:12.314Z,29.78
2022-08-18T07:45:19.621Z,29.77
2022-08-18T07:55:30.741Z,29.78
2022-08-18T08:05:37.884Z,29.76
2022-08-18T08:15:45.455Z,29.74
2022-08-18T08:27:12.844Z,29.74
2022-08-18T08:37:19.186Z,29.69
2022-08-18T08:47:26.504Z,29.75
2022-08-18T08:57:33.820Z,29.72
2022-08-18T09:07:40.780Z,29.72
2022-08-18T09:17:48.030Z,29.69
2022-08-18T09:28:10.397Z,29.73
2022-08-18T09:38:06.371Z,29.73
2022-08-18T09:48:13.023Z,29.73
2022-08-18T09:58:25.617Z,29.79
2022-08-18T10:08:32.347Z,29.77
2022-08-18T10:18:41.644Z,29.83
2022-08-18T10:28:49.293Z,29.85
2022-08-18T10:38:58.802Z,29.86
2022-08-18T10:49:06.061Z,29.93
2022-08-18T10:59:16.322Z,29.89
2022-08-18T11:09:23.479Z,29.89
2022-08-18T11:19:30.140Z,29.89
2022-08-18T11:29:37.360Z,29.92
2022-08-18T11:39:44.753Z,29.96
2022-08-18T11:49:54.501Z,29.94
2022-08-18T12:00:02.286Z,29.98
2022-08-18T12:10:17.931Z,29.99
2022-08-18T12:20:19.921Z,30.02
2022-08-18T12:30:28.331Z,30.01
2022-08-18T12:40:34.906Z,30.06
2022-08-18T12:50:54.159Z,30.12
2022-08-18T13:00:53.969Z,30.10
2022-08-18T13:11:15.181Z,30.13
2022-08-18T13:21:12.821Z,30.19
2022-08-18T13:31:19.262Z,30.16
2022-08-18T13:41:30.565Z,30.18
2022-08-18T13:51:39.337Z,30.16
2022-08-18T14:01:52.369Z,30.23
2022-08-18T14:11:59.525Z,30.32
2022-08-18T14:22:06.021Z,30.34
2022-08-18T14:32:17.942Z,30.35
2022-08-18T14:42:40.965Z,30.39
2022-08-18T14:52:35.115Z,30.46
2022-08-18T15:02:43.805Z,30.54
2022-08-18T15:12:52.814Z,30.49
2022-08-18T15:33:05.815Z,30.45
2022-08-18T15:43:16.455Z,30.54
2022-08-18T15:53:24.543Z,30.52
2022-08-18T16:03:36.285Z,30.54
2022-08-18T16:15:02.598Z,30.51
2022-08-18T16:25:08.084Z,30.41
2022-08-18T16:35:14.831Z,30.34
2022-08-18T16:45:21.250Z,30.40
2022-08-18T16:55:27.729Z,30.46
2022-08-18T17:05:33.961Z,30.38
2022-08-18T17:15:40.961Z,30.38
2022-08-18T17:25:47.557Z,30.31
2022-08-18T17:35:56.554Z,30.35
2022-08-18T17:46:02.654Z,30.34
2022-08-18T17:56:08.914Z,30.37
2022-08-18T18:06:15.678Z,30.31
2022-08-18T18:16:22.644Z,30.30
2022-08-18T18:26:28.873Z,30.28
2022-08-18T18:36:35.116Z,30.26
2022-08-18T18:46:41.830Z,30.29
2022-08-18T18:56:48.743Z,30.26
2022-08-18T19:06:55.085Z,30.28
2022-08-18T19:17:01.351Z,30.24
2022-08-18T19:27:07.944Z,30.30
2022-08-18T19:37:14.370Z,30.31
2022-08-18T19:47:27.884Z,30.28
2022-08-18T19:57:34.552Z,30.31
2022-08-18T20:07:41.714Z,30.34
2022-08-18T20:17:52.917Z,30.31
2022-08-18T20:27:59.707Z,30.33
2022-08-18T20:38:06.251Z,30.25
2022-08-18T20:48:12.839Z,30.16
2022-08-18T20:58:19.176Z,30.11
2022-08-18T21:08:26.585Z,30.18
2022-08-18T21:18:33.574Z,30.13
2022-08-18T21:28:39.781Z,30.11
2022-08-18T21:38:45.754Z,30.06
2022-08-18T21:48:57.321Z,29.97
2022-08-18T21:59:03.528Z,30.05
2022-08-18T22:09:10.491Z,30.01
2022-08-18T22:19:16.963Z,29.99
2022-08-18T22:29:23.742Z,29.88
2022-08-18T22:39:30.929Z,29.88
2022-08-18T22:49:38.194Z,29.92
2022-08-18T22:59:44.828Z,29.89
2022-08-18T23:09:53.132Z,29.87
2022-08-18T23:19:59.907Z,29.78
2022-08-18T23:30:07.060Z,29.82
2022-08-18T23:40:13.929Z,29.80
2022-08-18T23:50:21.253Z,29.77
